Time;durP1;ratioP1;P1;durP2;ratioP2;P2;SDS_P1;SDS_P2;PMS_P1;PMS_P2;Temp;Humidity;BMP_temperature;BMP_pressure;BME280_temperature;BME280_humidity;BME280_pressure;Samples;Min_cycle;Max_cycle;Signal;HPM_P1;HPM_P2
2022/03/09 00:01:58;;;;;;;17.73;12.18;;;;;;;-0.23;100.00;96886.34;5047836;28;20061;-58
2022/03/09 00:04:27;;;;;;;15.30;11.13;;;;;;;-0.25;100.00;96878.63;5045526;28;20069;-59
2022/03/09 00:06:55;;;;;;;19.23;11.10;;;;;;;-0.27;100.00;96885.66;5046426;28;20088;-59
2022/03/09 00:09:25;;;;;;;15.52;11.35;;;;;;;-0.28;100.00;96881.34;5046821;28;20061;-60
2022/03/09 00:11:55;;;;;;;19.15;11.05;;;;;;;-0.33;100.00;96888.50;5042556;28;20475;-59
2022/03/09 00:14:23;;;;;;;16.80;11.95;;;;;;;-0.33;100.00;96888.50;5048129;28;20068;-59
2022/03/09 00:16:51;;;;;;;15.55;11.00;;;;;;;-0.31;100.00;96891.88;5046328;28;20073;-60
2022/03/09 00:19:20;;;;;;;17.75;11.90;;;;;;;-0.30;100.00;96897.91;5044981;28;20060;-59
2022/03/09 00:21:48;;;;;;;16.60;11.00;;;;;;;-0.38;100.00;96899.97;5047037;28;20068;-57
2022/03/09 00:24:18;;;;;;;16.40;10.68;;;;;;;-0.38;100.00;96899.97;5048725;28;20079;-60
2022/03/09 00:26:46;;;;;;;17.40;10.83;;;;;;;-0.45;100.00;96894.19;5046400;28;20124;-58
2022/03/09 00:29:16;;;;;;;17.02;11.10;;;;;;;-0.41;100.00;96897.50;5047778;28;20065;-58
2022/03/09 00:31:44;;;;;;;16.88;11.27;;;;;;;-0.43;100.00;96896.75;5046917;28;20063;-58
2022/03/09 00:34:12;;;;;;;18.58;11.40;;;;;;;-0.45;100.00;96895.94;5043923;28;20081;-59
2022/03/09 00:36:41;;;;;;;17.23;10.80;;;;;;;-0.52;100.00;96895.38;5046725;28;22064;-60
2022/03/09 00:39:09;;;;;;;18.67;11.32;;;;;;;-0.52;100.00;96887.59;5046468;28;20067;-59
2022/03/09 00:41:37;;;;;;;18.88;11.13;;;;;;;-0.53;100.00;96884.19;5045980;28;20079;-56
2022/03/09 00:44:06;;;;;;;18.45;11.65;;;;;;;-0.51;100.00;96890.16;5044990;28;20091;-59
2022/03/09 00:46:37;;;;;;;17.10;11.45;;;;;;;-0.53;100.00;96898.88;5047222;28;20068;-60
2022/03/09 00:49:05;;;;;;;19.10;11.40;;;;;;;-0.58;100.00;96895.66;5046459;28;20068;-59
2022/03/09 00:51:37;;;;;;;19.08;12.13;;;;;;;-0.73;100.00;96897.97;5045443;28;20068;-58
2022/03/09 00:54:05;;;;;;;18.55;11.30;;;;;;;-0.96;100.00;96900.72;5048152;28;20167;-57
2022/03/09 00:56:34;;;;;;;15.52;11.50;;;;;;;-1.52;100.00;96906.38;5043803;28;20467;-59
2022/03/09 00:59:02;;;;;;;16.42;11.70;;;;;;;-1.94;100.00;96896.81;5046932;28;20902;-59
2022/03/09 01:01:30;;;;;;;21.33;12.43;;;;;;;-1.74;100.00;96901.22;5045818;28;20067;-57
2022/03/09 01:04:00;;;;;;;22.05;11.77;;;;;;;-1.80;100.00;96910.03;5041423;28;20456;-58
2022/03/09 01:06:28;;;;;;;15.30;11.20;;;;;;;-1.93;100.00;96901.94;5043125;28;20563;-58
2022/03/09 01:08:57;;;;;;;20.67;11.55;;;;;;;-1.92;100.00;96903.59;5046008;28;20644;-58
2022/03/09 01:11:25;;;;;;;21.67;12.38;;;;;;;-1.72;100.00;96905.44;5042901;28;20072;-60
2022/03/09 01:13:54;;;;;;;16.17;11.88;;;;;;;-1.65;100.00;96894.84;5046172;28;20072;-59
2022/03/09 01:16:22;;;;;;;19.55;12.18;;;;;;;-1.65;100.00;96892.25;5045029;28;20466;-60
2022/03/09 01:18:50;;;;;;;17.15;12.45;;;;;;;-1.63;100.00;96898.22;5044846;28;20064;-59
2022/03/09 01:21:19;;;;;;;16.60;11.88;;;;;;;-1.71;100.00;96890.75;5046118;28;20064;-60
2022/03/09 01:23:48;;;;;;;18.45;12.63;;;;;;;-2.03;100.00;96887.66;5043444;28;20792;-60
2022/03/09 01:26:16;;;;;;;15.70;11.70;;;;;;;-1.96;100.00;96889.13;5047400;28;20081;-60
2022/03/09 01:28:47;;;;;;;16.67;12.10;;;;;;;-1.89;100.00;96889.72;5045485;28;20079;-60
2022/03/09 01:31:15;;;;;;;18.25;11.77;;;;;;;-2.00;100.00;96877.19;5046428;28;20489;-58
2022/03/09 01:33:44;;;;;;;19.88;12.52;;;;;;;-2.08;100.00;96876.63;5046006;28;20467;-58
2022/03/09 01:36:12;;;;;;;18.15;12.35;;;;;;;-1.92;100.00;96872.59;5044026;28;20064;-60
2022/03/09 01:38:42;;;;;;;18.50;12.07;;;;;;;-1.83;100.00;96888.63;5045992;28;20704;-57
2022/03/09 01:41:11;;;;;;;20.13;12.52;;;;;;;-1.81;100.00;96892.84;5046430;28;20471;-60
2022/03/09 01:43:40;;;;;;;18.80;12.32;;;;;;;-1.78;100.00;96894.50;5043592;28;20554;-60
2022/03/09 01:46:08;;;;;;;18.27;12.75;;;;;;;-1.75;100.00;96902.97;5045649;28;20072;-60
2022/03/09 01:48:37;;;;;;;16.23;12.52;;;;;;;-1.96;100.00;96898.63;5041453;28;20076;-58
2022/03/09 01:51:06;;;;;;;18.42;11.73;;;;;;;-1.96;100.00;96896.88;5043369;28;20061;-59
2022/03/09 01:53:34;;;;;;;16.45;11.68;;;;;;;-2.22;100.00;96895.22;5045412;28;20088;-61
2022/03/09 01:56:03;;;;;;;18.42;12.60;;;;;;;-2.42;100.00;96884.78;5044597;28;20099;-60
2022/03/09 01:58:32;;;;;;;17.67;12.20;;;;;;;-2.33;100.00;96888.78;5046967;28;20546;-60
2022/03/09 02:01:00;;;;;;;16.55;11.85;;;;;;;-2.65;100.00;96898.50;5042788;28;20071;-60
2022/03/09 02:03:29;;;;;;;17.88;12.48;;;;;;;-2.51;100.00;96893.72;5041311;28;20068;-60
2022/03/09 02:05:59;;;;;;;19.33;12.45;;;;;;;-2.44;100.00;96892.59;5046058;28;20076;-58
2022/03/09 02:11:16;;;;;;;20.10;12.77;;;;;;;-2.51;100.00;96873.06;5039981;28;20088;-59
2022/03/09 02:13:44;;;;;;;23.00;13.87;;;;;;;-2.46;100.00;96873.72;5046090;28;20602;-57
2022/03/09 02:16:14;;;;;;;22.25;14.43;;;;;;;-2.27;100.00;96871.31;5044344;28;20052;-61
2022/03/09 02:18:43;;;;;;;20.48;13.15;;;;;;;-2.25;100.00;96868.69;5046666;28;20068;-60
2022/03/09 02:21:12;;;;;;;22.33;12.85;;;;;;;-2.21;100.00;96868.50;5044149;28;20090;-60
2022/03/09 02:23:41;;;;;;;17.80;12.98;;;;;;;-2.07;100.00;96872.31;5044656;28;20522;-57
2022/03/09 02:26:10;;;;;;;19.83;13.18;;;;;;;-2.01;100.00;96879.84;5046848;28;20080;-60
2022/03/09 02:28:38;;;;;;;15.65;11.60;;;;;;;-2.10;100.00;96886.19;5045271;28;20409;-60
2022/03/09 02:31:07;;;;;;;18.17;11.98;;;;;;;-2.33;100.00;96894.78;5046047;28;20534;-60
2022/03/09 02:33:35;;;;;;;21.30;12.18;;;;;;;-2.64;100.00;96895.88;5044176;28;20084;-57
2022/03/09 02:36:04;;;;;;;16.83;11.57;;;;;;;-3.59;100.00;96899.00;5043698;28;20064;-58
2022/03/09 02:38:33;;;;;;;21.70;11.87;;;;;;;-3.38;100.00;96894.91;5045612;28;20088;-61
2022/03/09 02:41:02;;;;;;;16.60;11.70;;;;;;;-3.11;100.00;96893.16;5042736;28;20085;-59
2022/03/09 02:43:31;;;;;;;20.97;12.40;;;;;;;-3.08;100.00;96881.06;5045535;28;20393;-63
2022/03/09 02:45:59;;;;;;;19.02;12.25;;;;;;;-3.03;100.00;96882.56;5044751;28;20522;-60
2022/03/09 02:48:28;;;;;;;19.83;13.13;;;;;;;-3.05;100.00;96883.53;5045425;28;20094;-59
2022/03/09 02:50:56;;;;;;;21.80;12.80;;;;;;;-2.86;100.00;96871.69;5046508;28;20071;-56
2022/03/09 02:53:25;;;;;;;20.38;12.45;;;;;;;-2.80;100.00;96875.81;5043773;28;20083;-59
2022/03/09 02:55:53;;;;;;;18.20;12.40;;;;;;;-2.71;100.00;96875.50;5047023;28;20095;-60
2022/03/09 02:58:23;;;;;;;18.10;12.25;;;;;;;-2.71;100.00;96883.25;5046389;28;20061;-60
2022/03/09 03:00:52;;;;;;;21.15;11.77;;;;;;;-2.67;100.00;96880.50;5047557;28;20068;-58
2022/03/09 03:03:20;;;;;;;18.48;12.25;;;;;;;-2.73;100.00;96883.28;5049389;28;20083;-61
2022/03/09 03:05:49;;;;;;;17.65;12.38;;;;;;;-2.68;100.00;96888.31;5047890;28;20108;-60
2022/03/09 03:08:17;;;;;;;18.35;12.10;;;;;;;-2.88;100.00;96888.97;5046673;28;20077;-58
2022/03/09 03:10:45;;;;;;;18.83;12.18;;;;;;;-3.25;100.00;96887.63;5049546;28;20072;-57
2022/03/09 03:13:14;;;;;;;19.95;12.35;;;;;;;-3.43;100.00;96886.47;5047876;28;20067;-60
2022/03/09 03:15:43;;;;;;;21.98;12.65;;;;;;;-3.22;100.00;96897.00;5048125;28;20088;-60
2022/03/09 03:18:11;;;;;;;17.73;11.68;;;;;;;-3.18;100.00;96906.31;5048735;28;20069;-59
2022/03/09 03:20:40;;;;;;;20.92;12.00;;;;;;;-3.30;100.00;96915.31;5046849;28;20523;-58
2022/03/09 03:23:08;;;;;;;20.08;13.05;;;;;;;-3.35;100.00;96910.28;5047688;28;20176;-59
2022/03/09 03:25:36;;;;;;;18.20;12.23;;;;;;;-3.16;100.00;96915.69;5043305;28;20064;-60
2022/03/09 03:28:05;;;;;;;17.67;12.70;;;;;;;-3.05;100.00;96911.91;5048692;28;20581;-59
2022/03/09 03:30:33;;;;;;;19.00;12.50;;;;;;;-2.92;100.00;96918.38;5047997;28;20069;-59
2022/03/09 03:33:03;;;;;;;20.75;12.25;;;;;;;-3.20;100.00;96921.84;5045848;28;20550;-59
2022/03/09 03:35:31;;;;;;;21.13;11.97;;;;;;;-3.26;100.00;96934.09;5046878;28;20080;-58
2022/03/09 03:37:59;;;;;;;20.98;13.23;;;;;;;-3.26;100.00;96939.25;5045371;28;20511;-58
2022/03/09 03:40:27;;;;;;;16.98;11.77;;;;;;;-3.33;100.00;96935.19;5047430;28;20338;-58
2022/03/09 03:42:56;;;;;;;20.42;12.32;;;;;;;-3.56;100.00;96938.47;5049715;28;20064;-59
2022/03/09 03:45:24;;;;;;;17.92;12.32;;;;;;;-3.32;100.00;96940.28;5045395;28;20072;-59
2022/03/09 03:47:55;;;;;;;18.33;13.00;;;;;;;-3.39;100.00;96931.06;5049252;28;20075;-58
2022/03/09 03:50:25;;;;;;;17.77;12.82;;;;;;;-3.57;100.00;96935.06;5045754;28;20071;-56
2022/03/09 03:52:53;;;;;;;18.58;13.35;;;;;;;-3.41;100.00;96931.09;5042406;28;20519;-60
2022/03/09 03:55:21;;;;;;;20.10;12.77;;;;;;;-3.50;100.00;96926.25;5048434;28;20076;-59
2022/03/09 03:57:50;;;;;;;18.40;12.57;;;;;;;-3.35;100.00;96936.06;5046087;28;20061;-58
2022/03/09 04:00:18;;;;;;;21.20;13.00;;;;;;;-3.21;100.00;96939.94;5051859;28;20061;-60
2022/03/09 04:02:47;;;;;;;21.73;13.10;;;;;;;-3.20;100.00;96942.47;5046451;28;20107;-57
2022/03/09 04:05:15;;;;;;;20.58;12.65;;;;;;;-3.12;100.00;96947.38;5046232;28;20084;-58
2022/03/09 04:07:45;;;;;;;17.67;12.35;;;;;;;-3.17;100.00;96954.41;5048907;28;20080;-60
2022/03/09 04:10:14;;;;;;;17.98;12.55;;;;;;;-3.14;100.00;96951.75;5044672;28;20061;-58
2022/03/09 04:12:42;;;;;;;17.77;12.18;;;;;;;-3.31;100.00;96951.44;5044670;28;20080;-57
2022/03/09 04:15:10;;;;;;;19.75;12.93;;;;;;;-3.27;100.00;96950.44;5045647;28;20041;-58
2022/03/09 04:17:40;;;;;;;21.20;12.73;;;;;;;-3.27;100.00;96946.16;5046706;28;20067;-59
2022/03/09 04:20:10;;;;;;;18.77;13.02;;;;;;;-3.39;100.00;96955.09;5046126;28;20631;-59
2022/03/09 04:22:38;;;;;;;20.33;13.55;;;;;;;-3.34;100.00;96960.09;5046599;28;20072;-59
2022/03/09 04:25:09;;;;;;;20.02;13.07;;;;;;;-3.27;100.00;96959.03;5046836;28;20065;-56
2022/03/09 04:27:38;;;;;;;23.27;13.57;;;;;;;-3.26;100.00;96967.63;5050541;28;20079;-59
2022/03/09 04:30:09;;;;;;;22.08;13.43;;;;;;;-3.30;100.00;96971.16;5045021;28;20075;-57
2022/03/09 04:32:38;;;;;;;18.88;13.57;;;;;;;-3.27;100.00;96971.94;5044799;28;20080;-59
2022/03/09 04:35:10;;;;;;;20.30;13.27;;;;;;;-3.33;100.00;96966.13;5047059;28;20085;-59
2022/03/09 04:37:38;;;;;;;20.77;13.07;;;;;;;-3.36;100.00;96973.06;5046636;28;20443;-58
2022/03/09 04:40:09;;;;;;;22.13;13.75;;;;;;;-3.72;100.00;96969.00;5046169;28;20103;-58
2022/03/09 04:42:38;;;;;;;21.73;13.65;;;;;;;-3.86;100.00;96977.97;5047256;28;20045;-58
2022/03/09 04:45:07;;;;;;;17.88;12.55;;;;;;;-4.02;100.00;96986.19;5045026;28;20053;-60
2022/03/09 04:47:36;;;;;;;19.92;13.75;;;;;;;-3.71;100.00;96989.59;5046025;28;20060;-58
2022/03/09 04:50:06;;;;;;;17.42;12.85;;;;;;;-4.04;100.00;96986.22;5044040;28;20087;-59
2022/03/09 04:52:35;;;;;;;19.52;12.77;;;;;;;-4.06;100.00;96995.72;5045654;28;20123;-59
2022/03/09 04:55:03;;;;;;;17.88;13.20;;;;;;;-3.97;100.00;96999.78;5045287;28;20068;-55
2022/03/09 04:57:34;;;;;;;21.98;13.52;;;;;;;-4.23;100.00;97013.34;5045747;28;20075;-59
2022/03/09 05:00:02;;;;;;;20.92;13.07;;;;;;;-4.18;100.00;96999.50;5046405;28;20063;-57
2022/03/09 05:02:30;;;;;;;20.15;12.75;;;;;;;-4.14;100.00;97006.22;5044783;28;20440;-58
2022/03/09 05:04:59;;;;;;;21.13;13.02;;;;;;;-4.03;100.00;97005.94;5054956;28;20071;-53
2022/03/09 05:07:27;;;;;;;21.42;13.20;;;;;;;-4.02;100.00;97005.06;5047206;28;20068;-58
2022/03/09 05:09:55;;;;;;;18.75;12.73;;;;;;;-3.82;100.00;97007.94;5040411;28;20068;-57
2022/03/09 05:12:24;;;;;;;20.30;12.93;;;;;;;-4.03;100.00;97002.53;5049700;28;20123;-58
2022/03/09 05:14:53;;;;;;;19.27;12.90;;;;;;;-3.90;100.00;97006.44;5045748;28;20068;-59
2022/03/09 05:17:22;;;;;;;22.43;13.83;;;;;;;-3.77;100.00;97006.94;5044339;28;20083;-59
2022/03/09 05:19:51;;;;;;;20.88;14.02;;;;;;;-4.05;100.00;97012.88;5047379;28;20490;-57
2022/03/09 05:22:19;;;;;;;25.88;15.20;;;;;;;-3.91;100.00;97007.34;5043421;28;20495;-58
2022/03/09 05:24:52;;;;;;;21.25;14.73;;;;;;;-3.91;100.00;97010.75;5042767;28;20057;-58
2022/03/09 05:27:21;;;;;;;17.83;12.57;;;;;;;-3.73;100.00;97011.13;5046666;28;20052;-54
2022/03/09 05:29:49;;;;;;;20.35;11.98;;;;;;;-4.65;100.00;97023.88;5044811;28;20060;-58
2022/03/09 05:32:19;;;;;;;16.52;11.93;;;;;;;-4.35;100.00;97010.22;5048586;28;20084;-56
2022/03/09 05:34:50;;;;;;;21.37;12.77;;;;;;;-4.42;100.00;97015.59;5045994;28;20089;-57
2022/03/09 05:37:23;;;;;;;18.98;12.57;;;;;;;-4.77;100.00;97009.59;5046040;28;20060;-57
2022/03/09 05:39:52;;;;;;;21.55;13.02;;;;;;;-4.69;100.00;97007.69;5046445;28;20065;-55
2022/03/09 05:42:38;;;;;;;23.67;12.85;;;;;;;-4.71;100.00;97000.88;5045245;28;20122;-55
2022/03/09 05:45:08;;;;;;;19.30;13.25;;;;;;;-4.79;100.00;97003.66;5046130;28;20072;-57
2022/03/09 05:47:50;;;;;;;21.55;12.40;;;;;;;-4.68;100.00;97005.94;5046410;28;20054;-56
2022/03/09 05:50:18;;;;;;;23.70;13.52;;;;;;;-4.69;100.00;97005.09;5044891;28;20329;-57
2022/03/09 05:52:46;;;;;;;19.23;12.43;;;;;;;-4.79;100.00;97014.78;5047439;28;20129;-55
2022/03/09 05:55:15;;;;;;;20.25;13.15;;;;;;;-4.56;100.00;97011.63;5044580;28;20061;-57
2022/03/09 05:57:46;;;;;;;20.33;12.95;;;;;;;-4.33;100.00;97005.06;5044772;28;20093;-52
2022/03/09 06:00:15;;;;;;;21.25;13.15;;;;;;;-4.21;100.00;97016.75;5052668;28;20071;-58
2022/03/09 06:02:44;;;;;;;22.77;13.20;;;;;;;-4.24;100.00;97015.09;5043011;28;20037;-56
2022/03/09 06:05:20;;;;;;;35.63;14.20;;;;;;;-3.92;100.00;97003.94;5045838;28;20069;-58
2022/03/09 06:07:49;;;;;;;29.13;14.38;;;;;;;-4.14;100.00;96998.50;5047656;28;20084;-58
2022/03/09 06:10:18;;;;;;;27.40;14.43;;;;;;;-4.04;100.00;97008.56;5043845;28;20068;-59
2022/03/09 06:12:46;;;;;;;33.03;17.10;;;;;;;-3.90;100.00;97003.88;5047431;28;20076;-58
2022/03/09 06:15:14;;;;;;;29.83;15.90;;;;;;;-3.80;100.00;97012.19;5043626;28;20076;-58
2022/03/09 06:17:47;;;;;;;35.90;17.50;;;;;;;-3.68;100.00;97015.28;5045510;28;20511;-59
2022/03/09 06:20:17;;;;;;;31.75;16.83;;;;;;;-3.62;100.00;97007.34;5045843;28;20080;-57
2022/03/09 06:22:47;;;;;;;41.05;18.52;;;;;;;-3.28;100.00;97006.34;5045626;28;20466;-59
2022/03/09 06:25:16;;;;;;;33.38;16.90;;;;;;;-3.01;100.00;97006.38;5044610;28;20534;-58
2022/03/09 06:27:46;;;;;;;34.00;16.70;;;;;;;-2.91;100.00;97007.78;5047249;28;20037;-55
2022/03/09 06:30:15;;;;;;;31.73;17.25;;;;;;;-2.82;100.00;97009.19;5045621;28;20084;-56
2022/03/09 06:32:43;;;;;;;30.15;16.30;;;;;;;-2.67;100.00;97004.41;5051791;28;20097;-59
2022/03/09 06:35:12;;;;;;;38.08;19.70;;;;;;;-2.52;100.00;97004.78;5046461;28;20080;-58
2022/03/09 06:37:41;;;;;;;38.60;19.20;;;;;;;-2.32;100.00;96998.94;5049052;28;20145;-59
2022/03/09 06:40:12;;;;;;;32.35;18.23;;;;;;;-2.15;100.00;96996.63;5051124;28;20057;-55
2022/03/09 06:42:40;;;;;;;41.38;21.65;;;;;;;-2.10;100.00;96999.88;5047742;28;20064;-60
2022/03/09 06:45:10;;;;;;;41.38;22.48;;;;;;;-1.80;100.00;97000.50;5044004;28;20087;-57
2022/03/09 06:47:38;;;;;;;40.65;19.42;;;;;;;-1.67;100.00;97014.69;5047714;28;20406;-58
2022/03/09 06:50:09;;;;;;;27.83;15.98;;;;;;;-1.76;100.00;97016.75;5043735;28;20087;-59
2022/03/09 06:52:38;;;;;;;27.83;16.13;;;;;;;-1.65;100.00;97011.19;5053154;28;20068;-57
2022/03/09 06:55:08;;;;;;;26.55;15.70;;;;;;;-1.26;100.00;97022.63;5047909;28;20061;-59
2022/03/09 06:57:39;;;;;;;27.77;16.17;;;;;;;-1.09;100.00;97027.16;5049362;28;20083;-59
2022/03/09 07:00:08;;;;;;;;;;;;;;;-0.82;100.00;97027.00;5050129;28;20064;-60
2022/03/09 07:02:36;;;;;;;28.77;16.25;;;;;;;-0.62;100.00;97026.16;5047765;28;19952;-56
2022/03/09 07:05:06;;;;;;;24.33;15.68;;;;;;;-0.34;100.00;97031.94;5051044;28;20072;-55
2022/03/09 07:07:36;;;;;;;24.10;15.43;;;;;;;-0.16;100.00;97032.91;5049620;28;20068;-59
2022/03/09 07:10:10;;;;;;;27.20;16.58;;;;;;;0.07;100.00;97024.16;5047852;28;20539;-56
2022/03/09 07:12:45;;;;;;;27.95;16.25;;;;;;;0.39;100.00;97027.06;5047986;28;20064;-57
2022/03/09 07:15:14;;;;;;;25.50;15.38;;;;;;;0.60;100.00;97023.50;5048417;28;20065;-57
2022/03/09 07:17:43;;;;;;;28.20;14.65;;;;;;;0.62;100.00;97026.03;5048466;28;20764;-52
2022/03/09 07:20:12;;;;;;;22.83;14.57;;;;;;;0.48;100.00;97031.84;5049234;28;20091;-54
2022/03/09 07:22:41;;;;;;;20.95;12.57;;;;;;;0.47;100.00;97032.75;5048379;28;20073;-57
2022/03/09 07:25:10;;;;;;;17.67;12.43;;;;;;;0.91;100.00;97032.47;5051001;28;20456;-56
2022/03/09 07:27:38;;;;;;;20.30;12.32;;;;;;;1.21;100.00;97029.38;5047106;28;20077;-55
2022/03/09 07:30:09;;;;;;;20.08;11.48;;;;;;;1.48;100.00;97030.63;5048662;28;20069;-54
2022/03/09 07:32:38;;;;;;;15.52;10.88;;;;;;;1.13;100.00;97030.53;5047637;28;20487;-59
2022/03/09 07:35:22;;;;;;;17.92;11.77;;;;;;;0.98;100.00;97043.44;5044212;28;20084;-53
2022/03/09 07:37:51;;;;;;;16.70;11.25;;;;;;;1.40;100.00;97035.34;5054790;28;20080;-55
2022/03/09 07:40:21;;;;;;;16.45;11.15;;;;;;;1.11;100.00;97037.59;5048439;28;20067;-59
2022/03/09 07:42:50;;;;;;;15.70;11.50;;;;;;;1.33;100.00;97036.56;5045483;28;20459;-57
2022/03/09 07:45:24;;;;;;;16.40;10.90;;;;;;;1.52;100.00;97036.53;5049821;28;20060;-59
2022/03/09 07:47:52;;;;;;;15.73;10.40;;;;;;;1.41;100.00;97044.81;5046428;28;20064;-59
2022/03/09 07:50:21;;;;;;;18.38;10.48;;;;;;;1.76;100.00;97042.28;5047747;28;20518;-57
2022/03/09 07:52:49;;;;;;;16.08;10.77;;;;;;;1.69;100.00;97049.53;5035982;28;20079;-58
2022/03/09 07:55:18;;;;;;;17.13;11.02;;;;;;;1.87;100.00;97045.19;5046625;28;20076;-58
2022/03/09 07:57:47;;;;;;;16.05;11.52;;;;;;;2.19;100.00;97047.91;5049025;28;20132;-52
2022/03/09 08:00:16;;;;;;;17.30;10.70;;;;;;;2.12;100.00;97047.38;5047748;28;20135;-54
2022/03/09 08:02:46;;;;;;;17.20;11.35;;;;;;;2.30;100.00;97055.97;5047941;28;20090;-52
2022/03/09 08:05:14;;;;;;;15.00;11.02;;;;;;;2.65;99.33;97048.09;5049304;28;20073;-54
2022/03/09 08:07:45;;;;;;;17.20;10.70;;;;;;;2.67;95.82;97056.69;5047777;28;20037;-57
2022/03/09 08:10:13;;;;;;;15.18;10.65;;;;;;;3.01;90.99;97058.31;5047671;28;20113;-57
2022/03/09 08:12:41;;;;;;;19.70;10.63;;;;;;;3.12;92.02;97050.75;5044958;28;20092;-55
2022/03/09 08:15:11;;;;;;;13.45;9.98;;;;;;;3.22;85.33;97053.69;5046978;28;20514;-60
2022/03/09 08:17:39;;;;;;;16.42;10.77;;;;;;;3.27;84.86;97051.69;5044346;28;20132;-50
2022/03/09 08:20:09;;;;;;;14.50;10.90;;;;;;;3.46;85.40;97051.47;5046190;28;20069;-52
2022/03/09 08:22:39;;;;;;;17.15;9.40;;;;;;;3.12;86.13;97048.13;5046782;28;20072;-59
2022/03/09 08:25:08;;;;;;;13.82;10.10;;;;;;;3.02;90.65;97047.78;5052893;28;20072;-55
2022/03/09 08:27:36;;;;;;;13.15;9.23;;;;;;;3.00;82.09;97051.44;5045743;28;20485;-56
2022/03/09 08:30:06;;;;;;;15.05;10.38;;;;;;;3.27;83.46;97046.47;5049400;28;20082;-51
2022/03/09 08:32:34;;;;;;;14.82;9.65;;;;;;;3.94;79.33;97045.22;5047205;28;20069;-55
2022/03/09 08:35:02;;;;;;;15.13;9.35;;;;;;;3.42;78.67;97045.59;5047082;28;20098;-57
2022/03/09 08:37:32;;;;;;;15.55;9.13;;;;;;;3.44;79.94;97048.97;5047835;28;20511;-55
2022/03/09 08:40:00;;;;;;;14.63;9.50;;;;;;;3.56;75.82;97050.88;5043803;28;20077;-57
2022/03/09 08:42:29;;;;;;;13.85;9.98;;;;;;;4.47;72.78;97041.22;5046172;28;20499;-50
2022/03/09 08:44:57;;;;;;;11.43;8.63;;;;;;;4.60;72.54;97043.06;5046228;28;20083;-53
2022/03/09 08:47:25;;;;;;;13.15;9.02;;;;;;;4.85;68.88;97048.50;5043991;28;20064;-57
2022/03/09 08:49:54;;;;;;;13.73;9.55;;;;;;;4.45;69.84;97037.00;5042056;28;20067;-57
2022/03/09 08:52:43;;;;;;;15.90;9.75;;;;;;;4.53;71.62;97032.16;5045047;28;20138;-58
2022/03/09 08:55:12;;;;;;;16.23;8.85;;;;;;;4.52;71.49;97041.75;5047249;28;20098;-56
2022/03/09 08:57:40;;;;;;;16.52;9.60;;;;;;;4.88;68.61;97044.81;5050899;28;20475;-57
2022/03/09 09:00:09;;;;;;;15.77;9.90;;;;;;;5.29;63.75;97042.22;5045574;28;20092;-56
2022/03/09 09:02:37;;;;;;;12.73;8.98;;;;;;;5.17;62.41;97049.06;5045542;28;20542;-59
2022/03/09 09:05:07;;;;;;;13.35;8.70;;;;;;;4.81;65.93;97049.59;5046323;28;20459;-57
2022/03/09 09:07:35;;;;;;;14.70;9.60;;;;;;;5.12;62.82;97048.50;5045070;28;20069;-55
2022/03/09 09:10:06;;;;;;;14.30;9.18;;;;;;;5.46;60.11;97047.22;5045220;28;20076;-54
2022/03/09 09:12:34;;;;;;;13.18;9.45;;;;;;;5.29;59.17;97042.22;5044970;28;20122;-56
2022/03/09 09:15:03;;;;;;;11.48;8.98;;;;;;;5.23;59.09;97042.63;5046841;28;20105;-55
2022/03/09 09:17:31;;;;;;;12.10;8.65;;;;;;;5.80;57.93;97045.03;5042326;28;20585;-57
2022/03/09 09:20:08;;;;;;;14.18;9.68;;;;;;;5.48;58.68;97047.13;5044049;28;20065;-54
2022/03/09 09:22:36;;;;;;;13.10;9.27;;;;;;;6.39;55.34;97036.75;5047909;28;20087;-57
2022/03/09 09:25:27;;;;;;;13.70;9.20;;;;;;;5.89;55.75;97033.13;5045603;28;20631;-57
2022/03/09 09:27:55;;;;;;;;;;;;;;;6.16;56.16;97031.31;5042463;28;20072;-54
2022/03/09 09:30:26;;;;;;;11.57;8.48;;;;;;;6.81;52.66;97027.75;5047878;28;19963;-57
2022/03/09 09:32:54;;;;;;;;;;;;;;;6.86;50.96;97028.25;5045352;28;20508;-55
2022/03/09 09:35:23;;;;;;;16.00;8.57;;;;;;;5.91;52.88;97028.59;5045243;28;19956;-55
2022/03/09 09:37:52;;;;;;;12.00;8.73;;;;;;;6.31;51.49;97036.47;5046433;28;20075;-53
2022/03/09 09:40:20;;;;;;;14.35;8.68;;;;;;;6.07;52.42;97033.72;5044695;28;20475;-53
2022/03/09 09:42:51;;;;;;;14.20;9.52;;;;;;;6.85;50.57;97028.38;5046556;28;20044;-54
2022/03/09 09:45:21;;;;;;;13.85;9.35;;;;;;;6.46;52.08;97026.69;5046092;28;20068;-48
2022/03/09 09:47:51;;;;;;;14.18;9.38;;;;;;;6.33;52.36;97031.94;5045102;28;20076;-52
2022/03/09 09:50:20;;;;;;;12.30;9.48;;;;;;;6.80;50.79;97030.44;5046612;28;20057;-55
2022/03/09 09:52:48;;;;;;;13.13;9.27;;;;;;;6.72;50.44;97032.78;5044798;28;20075;-54
2022/03/09 09:55:17;;;;;;;13.07;9.93;;;;;;;6.86;50.19;97030.03;5046138;28;20068;-55
2022/03/09 09:57:47;;;;;;;13.90;9.50;;;;;;;7.35;50.47;97019.50;5046089;28;20081;-54
2022/03/09 10:00:17;;;;;;;12.70;8.93;;;;;;;7.06;50.05;97031.25;5045544;28;20463;-55
2022/03/09 10:02:45;;;;;;;16.33;9.35;;;;;;;6.91;49.47;97025.28;5047642;28;21671;-51
2022/03/09 10:05:15;;;;;;;11.68;8.65;;;;;;;7.36;47.52;97029.06;5043026;28;20089;-52
2022/03/09 10:08:14;;;;;;;12.23;8.50;;;;;;;7.23;46.98;97024.81;5051171;28;20088;-52
2022/03/09 10:10:44;;;;;;;10.68;7.95;;;;;;;7.30;45.66;97028.66;5046106;28;20782;-50
2022/03/09 10:13:15;;;;;;;11.05;7.30;;;;;;;7.00;45.92;97032.50;5046269;28;20470;-54
2022/03/09 10:15:45;;;;;;;;;;;;;;;6.90;45.57;97026.25;5046089;28;20107;-58
2022/03/09 10:18:15;;;;;;;11.32;7.47;;;;;;;7.36;45.68;97030.81;5046031;28;19959;-53
2022/03/09 10:20:44;;;;;;;11.07;7.50;;;;;;;7.45;44.82;97034.59;5044923;28;20525;-54
2022/03/09 10:23:13;;;;;;;13.35;7.97;;;;;;;7.45;45.55;97031.97;5046145;28;20072;-59
2022/03/09 10:25:42;;;;;;;10.43;7.63;;;;;;;7.91;43.97;97029.41;5044862;28;20072;-54
2022/03/09 10:28:12;;;;;;;11.05;7.88;;;;;;;7.83;45.62;97035.22;5045871;28;20534;-55
2022/03/09 10:30:42;;;;;;;12.93;7.47;;;;;;;7.96;44.66;97029.91;5046642;28;20084;-54
2022/03/09 10:33:12;;;;;;;9.30;7.37;;;;;;;7.94;45.30;97029.19;5046421;28;20076;-54
2022/03/09 10:35:43;;;;;;;12.77;7.53;;;;;;;7.61;45.67;97032.53;5045530;28;20067;-54
2022/03/09 10:38:27;;;;;;;11.77;7.72;;;;;;;7.78;44.61;97033.91;5045708;28;20072;-54
2022/03/09 10:41:00;;;;;;;10.07;7.60;;;;;;;7.97;44.91;97025.50;5041820;28;20527;-58
2022/03/09 10:43:29;;;;;;;11.35;8.18;;;;;;;7.81;44.94;97033.66;5045784;28;20064;-54
2022/03/09 10:46:08;;;;;;;10.55;7.18;;;;;;;8.10;44.10;97026.25;5049717;28;20099;-56
2022/03/09 10:48:53;;;;;;;10.10;7.68;;;;;;;8.14;44.60;97022.44;5042769;28;20087;-59
2022/03/09 10:51:30;;;;;;;11.25;7.43;;;;;;;7.94;44.42;97023.09;5051551;28;20084;-56
2022/03/09 10:53:59;;;;;;;11.35;7.68;;;;;;;8.33;43.84;97020.09;5045929;28;20280;-57
2022/03/09 10:56:27;;;;;;;11.00;7.82;;;;;;;8.43;43.54;97009.75;5046751;28;20515;-56
2022/03/09 10:58:56;;;;;;;9.85;7.07;;;;;;;8.12;42.76;97013.00;5046378;28;20068;-54
2022/03/09 11:01:26;;;;;;;11.82;7.57;;;;;;;8.44;43.05;97003.53;5044699;28;20069;-53
2022/03/09 11:03:56;;;;;;;9.98;7.68;;;;;;;8.35;42.92;97006.00;5040232;28;20076;-53
2022/03/09 11:06:26;;;;;;;10.37;7.73;;;;;;;8.26;41.81;97005.75;5046266;28;20077;-52
2022/03/09 11:08:55;;;;;;;9.85;6.78;;;;;;;8.28;40.28;97008.25;5043938;28;20305;-59
2022/03/09 11:11:23;;;;;;;10.50;7.45;;;;;;;8.34;40.10;97007.78;5047165;28;20092;-50
2022/03/09 11:13:52;;;;;;;9.15;7.22;;;;;;;8.75;40.14;97006.44;5043889;28;20076;-57
2022/03/09 11:16:20;;;;;;;10.15;6.97;;;;;;;8.91;40.06;96999.00;5045026;28;20065;-57
2022/03/09 11:18:49;;;;;;;9.93;7.20;;;;;;;8.67;39.84;97004.41;5049433;28;20081;-51
2022/03/09 11:21:19;;;;;;;9.68;6.88;;;;;;;8.55;37.92;96995.66;5048537;28;20092;-51
2022/03/09 11:23:48;;;;;;;10.07;6.43;;;;;;;8.82;38.47;96998.91;5048674;28;20068;-53
2022/03/09 11:26:21;;;;;;;9.77;6.35;;;;;;;8.78;38.26;96996.50;5048567;28;20080;-58
2022/03/09 11:28:59;;;;;;;8.35;6.32;;;;;;;8.83;38.17;96990.88;5045972;28;20087;-57
2022/03/09 11:31:43;;;;;;;9.05;6.65;;;;;;;8.89;38.43;96992.19;5050884;28;20132;-55
2022/03/09 11:34:32;;;;;;;9.85;6.88;;;;;;;9.58;38.32;96976.94;5046622;28;20069;-51